Time;durP1;ratioP1;P1;durP2;ratioP2;P2;SDS_P1;SDS_P2;PMS_P1;PMS_P2;Temp;Humidity;BMP_temperature;BMP_pressure;BME280_temperature;BME280_humidity;BME280_pressure;Samples;Min_cycle;Max_cycle;Signal;HPM_P1;HPM_P2
2022/09/27 00:00:14;;;;;;;44.53;36.05;;;;;;;9.84;100.00;98188.63;5092492;28;20551;-77
2022/09/27 00:02:40;;;;;;;44.55;34.33;;;;;;;9.90;100.00;98198.63;5092757;28;20536;-77
2022/09/27 00:05:05;;;;;;;47.00;38.00;;;;;;;9.86;100.00;98191.09;5092275;28;20024;-77
2022/09/27 00:07:31;;;;;;;44.28;36.55;;;;;;;9.89;100.00;98186.53;5092211;28;20512;-77
2022/09/27 00:09:57;;;;;;;38.35;30.85;;;;;;;9.96;100.00;98195.59;5092228;28;20043;-77
2022/09/27 00:12:22;;;;;;;35.38;30.45;;;;;;;9.97;100.00;98186.84;5092231;28;20095;-77
2022/09/27 00:14:48;;;;;;;41.10;31.80;;;;;;;9.97;100.00;98180.81;5091961;28;20092;-77
2022/09/27 00:17:14;;;;;;;31.63;28.23;;;;;;;10.03;100.00;98177.81;5092340;28;20048;-77
2022/09/27 00:19:40;;;;;;;39.67;30.63;;;;;;;10.06;100.00;98180.19;5092323;28;20431;-77
2022/09/27 00:22:05;;;;;;;33.53;28.25;;;;;;;10.12;100.00;98187.59;5091972;28;20024;-77
2022/09/27 00:24:30;;;;;;;32.47;27.42;;;;;;;10.16;100.00;98185.63;5092555;28;20045;-77
2022/09/27 00:26:56;;;;;;;29.02;25.65;;;;;;;10.13;100.00;98180.63;5091894;28;20028;-77
2022/09/27 00:29:21;;;;;;;29.70;26.50;;;;;;;10.17;100.00;98177.69;5092062;28;20508;-77
2022/09/27 00:31:47;;;;;;;30.20;26.30;;;;;;;10.15;100.00;98176.94;5092583;28;20028;-77
2022/09/27 00:34:22;;;;;;;31.90;25.85;;;;;;;10.17;100.00;98172.50;5092280;28;20376;-77
2022/09/27 00:36:48;;;;;;;35.08;28.27;;;;;;;10.21;100.00;98175.72;5092487;28;20028;-77
2022/09/27 00:39:14;;;;;;;33.47;27.70;;;;;;;10.18;100.00;98168.13;5091787;28;20030;-77
2022/09/27 00:41:40;;;;;;;32.17;27.63;;;;;;;10.14;100.00;98159.69;5091945;28;20028;-77
2022/09/27 00:44:32;;;;;;;30.73;26.65;;;;;;;10.14;100.00;98174.47;5091967;28;20077;-77
2022/09/27 00:47:03;;;;;;;31.77;27.67;;;;;;;10.13;100.00;98178.00;5069122;28;20033;-77
2022/09/27 00:49:37;;;;;;;35.80;28.83;;;;;;;10.10;100.00;98165.22;5069241;28;20082;-77
2022/09/27 00:52:18;;;;;;;31.35;26.80;;;;;;;10.09;100.00;98163.56;5069274;28;20102;-77
2022/09/27 00:54:47;;;;;;;32.00;26.73;;;;;;;9.99;100.00;98140.78;5069600;28;20021;-77
2022/09/27 00:57:12;;;;;;;32.28;26.75;;;;;;;9.99;100.00;98140.78;5069058;28;20415;-77
2022/09/27 00:59:44;;;;;;;30.95;26.98;;;;;;;9.97;100.00;98140.03;5069148;28;20017;-77
2022/09/27 01:02:10;;;;;;;31.13;27.38;;;;;;;9.94;100.00;98137.66;5068944;28;20039;-77
2022/09/27 01:04:37;;;;;;;29.50;25.67;;;;;;;9.87;100.00;98128.59;5069324;28;20035;-77
2022/09/27 01:07:03;;;;;;;38.13;28.58;;;;;;;9.87;100.00;98127.78;5068642;28;20040;-77
2022/09/27 01:09:29;;;;;;;30.08;26.33;;;;;;;9.84;100.00;98134.00;5069160;28;20123;-77
2022/09/27 01:12:04;;;;;;;29.70;26.48;;;;;;;9.83;100.00;98119.34;5068758;28;20037;-77
2022/09/27 01:14:51;;;;;;;28.88;24.88;;;;;;;9.85;100.00;98117.47;5069037;28;20436;-77
2022/09/27 01:17:43;;;;;;;27.80;24.77;;;;;;;9.85;100.00;98108.81;5069144;28;20124;-77
2022/09/27 01:20:30;;;;;;;29.70;25.58;;;;;;;9.83;100.00;98116.75;5069260;28;20025;-77
2022/09/27 01:23:17;;;;;;;30.27;26.90;;;;;;;9.79;100.00;98086.69;5070995;28;20032;-77
2022/09/27 01:26:20;;;;;;;33.50;29.13;;;;;;;9.73;100.00;98082.75;5095333;28;20020;-77
2022/09/27 01:29:05;;;;;;;32.40;26.83;;;;;;;9.66;100.00;98071.09;5095508;28;20111;-77
2022/09/27 01:31:44;;;;;;;29.63;26.00;;;;;;;9.62;100.00;98071.41;5095460;28;20044;-77
2022/09/27 01:34:25;;;;;;;28.75;25.13;;;;;;;9.57;100.00;98070.91;5095143;28;20103;-77
2022/09/27 01:36:57;;;;;;;;;;;;;;;9.54;100.00;98069.31;5095662;28;20016;-77
2022/09/27 01:39:35;;;;;;;29.55;24.23;;;;;;;9.49;100.00;98063.59;5095053;28;20280;-77
2022/09/27 01:42:10;;;;;;;33.05;27.73;;;;;;;9.46;100.00;98062.03;5094957;28;20027;-77
2022/09/27 01:44:53;;;;;;;30.08;25.10;;;;;;;9.36;100.00;98040.22;5095394;28;20019;-77
2022/09/27 01:47:22;;;;;;;31.10;26.75;;;;;;;9.36;100.00;98050.63;5093929;28;20376;-77
2022/09/27 01:50:04;;;;;;;30.92;27.45;;;;;;;9.33;100.00;98055.19;5095400;28;20085;-77
2022/09/27 01:52:53;;;;;;;33.97;27.75;;;;;;;9.30;100.00;98048.41;5095077;28;20031;-77
2022/09/27 01:55:23;;;;;;;29.35;24.95;;;;;;;9.28;100.00;98044.25;5095159;28;20012;-77
2022/09/27 01:57:56;;;;;;;28.77;25.30;;;;;;;9.26;100.00;98046.94;5094917;28;20460;-77
2022/09/27 02:00:22;;;;;;;30.75;25.85;;;;;;;9.24;100.00;98049.66;5094800;28;20020;-77
2022/09/27 02:03:04;;;;;;;29.90;24.33;;;;;;;9.24;100.00;98047.06;5094772;28;20027;-77
2022/09/27 02:05:43;;;;;;;33.50;28.50;;;;;;;9.22;100.00;98043.72;5094942;28;20023;-77
2022/09/27 02:08:21;;;;;;;34.92;29.52;;;;;;;9.17;100.00;98035.41;5094444;28;20040;-77
2022/09/27 02:10:48;;;;;;;31.95;25.25;;;;;;;9.11;100.00;98022.84;5094710;28;20035;-77
2022/09/27 02:13:22;;;;;;;35.97;29.48;;;;;;;9.13;100.00;98030.53;5094287;28;20559;-77
2022/09/27 02:16:02;;;;;;;29.38;25.30;;;;;;;9.08;100.00;98028.22;5094393;28;20024;-77
2022/09/27 02:18:34;;;;;;;35.60;29.40;;;;;;;9.12;100.00;98032.28;5094328;28;20020;-77
2022/09/27 02:21:06;;;;;;;35.13;29.67;;;;;;;9.06;100.00;98024.06;5094238;28;20048;-77
2022/09/27 02:23:43;;;;;;;34.80;28.40;;;;;;;9.00;100.00;98020.94;5094349;28;20107;-77
2022/09/27 02:26:16;;;;;;;39.85;30.75;;;;;;;9.07;100.00;98025.75;5094030;28;20403;-77
2022/09/27 02:28:42;;;;;;;33.75;29.20;;;;;;;9.02;100.00;98026.06;5094381;28;20028;-77
2022/09/27 02:31:08;;;;;;;32.70;27.50;;;;;;;8.97;100.00;98020.31;5094103;28;20109;-77
2022/09/27 02:33:40;;;;;;;33.78;26.02;;;;;;;8.94;100.00;98007.56;5094544;28;20024;-77
2022/09/27 02:36:06;;;;;;;30.95;25.92;;;;;;;8.92;100.00;97999.00;5093002;28;20103;-77
2022/09/27 02:38:32;;;;;;;30.23;25.75;;;;;;;8.91;100.00;98000.78;5093945;28;20103;-77
2022/09/27 02:40:57;;;;;;;29.38;24.85;;;;;;;8.95;100.00;98004.00;5093967;28;20015;-77
2022/09/27 02:43:26;;;;;;;28.30;25.08;;;;;;;8.92;100.00;97991.22;5094055;28;20360;-77
2022/09/27 02:46:28;;;;;;;28.02;24.15;;;;;;;8.98;100.00;97990.84;5094227;28;20027;-77
2022/09/27 02:49:15;;;;;;;26.20;23.30;;;;;;;8.99;100.00;98000.28;5071277;28;20107;-77
2022/09/27 02:52:18;;;;;;;28.48;24.15;;;;;;;9.03;100.00;97995.72;5011580;28;20057;-76
2022/09/27 02:55:02;;;;;;;30.35;24.85;;;;;;;8.96;100.00;97972.75;5011486;28;20021;-77
2022/09/27 02:57:42;;;;;;;26.58;23.55;;;;;;;9.06;100.00;97983.38;5011287;28;20419;-77
2022/09/27 03:00:19;;;;;;;26.58;23.70;;;;;;;9.03;100.00;97973.19;5011151;28;20042;-77
2022/09/27 03:03:13;;;;;;;28.08;21.80;;;;;;;9.09;100.00;97983.13;5011221;28;20041;-77
2022/09/27 03:05:47;;;;;;;27.60;22.60;;;;;;;9.14;100.00;97985.44;5011243;28;20470;-77
2022/09/27 03:08:13;;;;;;;26.27;22.23;;;;;;;9.14;100.00;97975.91;5010718;28;20133;-77
2022/09/27 03:10:39;;;;;;;26.30;23.33;;;;;;;9.17;100.00;97975.66;4994646;28;20536;-77
2022/09/27 03:13:04;;;;;;;26.58;23.52;;;;;;;8.99;100.00;97946.56;5010724;28;20030;-77
2022/09/27 03:15:30;;;;;;;25.35;22.67;;;;;;;9.13;100.00;97963.00;5010952;28;20125;-77
2022/09/27 03:17:56;;;;;;;30.92;24.17;;;;;;;9.15;100.00;97950.75;5010879;28;20036;-77
2022/09/27 03:20:22;;;;;;;26.30;23.40;;;;;;;9.20;100.00;97970.28;5010785;28;20438;-77
2022/09/27 03:22:47;;;;;;;26.70;23.70;;;;;;;9.23;100.00;97969.25;5010611;28;20420;-77
2022/09/27 03:25:13;;;;;;;25.23;22.45;;;;;;;9.27;100.00;97962.91;5027528;28;20089;-77
2022/09/27 03:27:38;;;;;;;29.23;25.23;;;;;;;9.18;100.00;97946.16;5071801;28;20043;-77
2022/09/27 03:30:05;;;;;;;27.77;22.83;;;;;;;9.30;100.00;97964.44;5113137;28;20149;-77
2022/09/27 03:32:30;;;;;;;25.48;22.45;;;;;;;9.29;100.00;97961.00;5113395;28;20020;-77
2022/09/27 03:34:56;;;;;;;27.17;24.17;;;;;;;9.28;100.00;97945.53;5113320;27;20046;-77
2022/09/27 03:37:21;;;;;;;26.55;22.23;;;;;;;9.30;100.00;97947.09;5113090;28;20024;-77
2022/09/27 03:39:47;;;;;;;24.20;19.92;;;;;;;9.28;100.00;97942.94;5112103;28;20020;-77
2022/09/27 03:42:12;;;;;;;21.45;19.15;;;;;;;9.34;100.00;97945.94;5113506;28;20020;-77
2022/09/27 03:44:37;;;;;;;23.88;20.25;;;;;;;9.36;100.00;97946.69;5113523;28;20501;-76
2022/09/27 03:47:03;;;;;;;24.92;21.38;;;;;;;9.30;100.00;97938.47;5112896;28;20054;-77
2022/09/27 03:49:28;;;;;;;25.02;19.05;;;;;;;9.28;100.00;97930.78;5113289;28;20103;-77
2022/09/27 03:51:54;;;;;;;21.27;18.25;;;;;;;9.29;100.00;97937.63;5113079;28;20037;-77
2022/09/27 03:54:19;;;;;;;22.92;20.45;;;;;;;9.33;100.00;97940.84;5112896;28;20024;-76
2022/09/27 03:56:45;;;;;;;21.70;19.35;;;;;;;9.32;100.00;97932.25;5113040;28;20028;-76
2022/09/27 03:59:10;;;;;;;21.60;19.30;;;;;;;9.27;100.00;97923.94;5112619;28;20020;-77
2022/09/27 04:01:37;;;;;;;21.33;19.02;;;;;;;9.32;100.00;97936.59;5112935;28;20023;-77
2022/09/27 04:04:03;;;;;;;22.67;19.02;;;;;;;9.36;100.00;97941.47;5112523;28;20047;-77
2022/09/27 04:06:29;;;;;;;23.00;20.55;;;;;;;9.32;100.00;97936.59;5112586;28;20407;-77
2022/09/27 04:08:54;;;;;;;22.70;20.27;;;;;;;9.37;100.00;97934.50;5112847;28;20027;-77
2022/09/27 04:11:20;;;;;;;22.58;20.17;;;;;;;9.33;100.00;97922.66;5112395;28;20464;-77
2022/09/27 04:13:48;;;;;;;23.35;20.42;;;;;;;9.39;100.00;97930.03;5112737;28;20098;-77
2022/09/27 04:16:14;;;;;;;23.52;20.25;;;;;;;9.37;100.00;97930.16;5112495;28;20026;-77
2022/09/27 04:18:39;;;;;;;22.02;19.48;;;;;;;9.36;100.00;97936.28;5112608;28;20376;-77
2022/09/27 04:21:04;;;;;;;21.85;19.60;;;;;;;9.34;100.00;97932.94;5112772;28;20016;-77
2022/09/27 04:23:30;;;;;;;22.88;20.17;;;;;;;9.34;100.00;97930.34;5111386;28;20019;-77
2022/09/27 04:25:55;;;;;;;20.77;18.42;;;;;;;9.28;100.00;97922.16;5112622;28;20027;-77
2022/09/27 04:28:21;;;;;;;21.45;18.45;;;;;;;9.39;100.00;97940.41;5112469;28;20038;-77
2022/09/27 04:30:47;;;;;;;23.13;18.55;;;;;;;9.33;100.00;97923.50;5112459;28;20023;-77
2022/09/27 04:33:12;;;;;;;21.23;19.02;;;;;;;9.36;100.00;97930.25;5112057;28;20019;-77
2022/09/27 04:38:22;;;;;;;23.50;19.88;;;;;;;9.38;100.00;97925.78;5112139;28;20089;-77
2022/09/27 04:40:49;;;;;;;23.38;20.00;;;;;;;9.44;100.00;97938.38;5112350;28;20024;-77
2022/09/27 04:43:14;;;;;;;21.00;18.77;;;;;;;9.39;100.00;97935.22;5112056;28;20024;-77
2022/09/27 04:45:42;;;;;;;22.58;20.17;;;;;;;9.43;100.00;97921.09;5112214;28;20034;-77
2022/09/27 04:48:07;;;;;;;20.73;18.60;;;;;;;9.49;100.00;97933.66;5112250;28;20015;-77
2022/09/27 04:50:32;;;;;;;21.73;19.10;;;;;;;9.45;100.00;97914.03;5112405;28;20022;-77
2022/09/27 04:52:58;;;;;;;21.70;18.40;;;;;;;9.54;100.00;97915.16;5112431;28;20046;-77
2022/09/27 04:55:23;;;;;;;20.92;17.95;;;;;;;9.54;100.00;97941.16;5112089;28;20024;-77
2022/09/27 04:57:49;;;;;;;21.08;18.67;;;;;;;9.57;100.00;97926.16;5112555;27;20032;-77
2022/09/27 05:00:14;;;;;;;20.63;17.92;;;;;;;9.56;100.00;97919.28;5116085;28;20023;-77
2022/09/27 05:02:42;;;;;;;20.30;18.17;;;;;;;9.62;100.00;97926.66;5116634;28;20097;-77
2022/09/27 05:05:09;;;;;;;23.50;20.88;;;;;;;9.59;100.00;97921.69;5116105;28;20027;-77
2022/09/27 05:07:34;;;;;;;28.95;20.65;;;;;;;9.55;100.00;97889.03;5116124;28;20043;-77
2022/09/27 05:10:00;;;;;;;21.45;18.80;;;;;;;9.51;100.00;97892.78;5116321;28;20016;-77
2022/09/27 05:12:25;;;;;;;26.70;20.00;;;;;;;9.52;100.00;97897.06;5116181;28;20027;-77
2022/09/27 05:14:52;;;;;;;26.70;21.85;;;;;;;9.53;100.00;97892.72;5116052;28;20498;-77
2022/09/27 05:17:17;;;;;;;23.30;19.90;;;;;;;9.46;100.00;97894.91;5115895;28;20023;-77
2022/09/27 05:19:43;;;;;;;26.95;22.38;;;;;;;9.38;100.00;97887.63;5115856;28;20084;-77
2022/09/27 05:22:08;;;;;;;26.65;22.33;;;;;;;9.30;100.00;97892.53;5115908;28;20019;-77
2022/09/27 05:24:34;;;;;;;25.80;22.83;;;;;;;9.31;100.00;97894.19;5116049;28;20024;-77
2022/09/27 05:27:00;;;;;;;26.88;21.30;;;;;;;9.25;100.00;97895.44;5115861;28;20440;-77
2022/09/27 05:29:26;;;;;;;25.08;20.05;;;;;;;9.32;100.00;97895.88;5115565;28;20023;-77
2022/09/27 05:31:51;;;;;;;26.23;23.20;;;;;;;9.30;100.00;97886.50;5116082;28;20042;-77
2022/09/27 05:34:19;;;;;;;26.13;23.30;;;;;;;9.26;100.00;97888.47;5115618;28;20019;-77
2022/09/27 05:36:48;;;;;;;25.20;21.90;;;;;;;9.20;100.00;97884.56;5115928;28;20051;-77
2022/09/27 05:39:15;;;;;;;25.00;21.38;;;;;;;9.21;100.00;97894.00;5114943;28;20031;-77
2022/09/27 05:41:41;;;;;;;25.85;22.30;;;;;;;9.16;100.00;97888.28;5115469;28;20020;-77
2022/09/27 05:44:06;;;;;;;25.00;22.33;;;;;;;9.21;100.00;97894.00;5115458;28;20024;-77
2022/09/27 05:46:32;;;;;;;26.70;22.00;;;;;;;9.15;100.00;97888.41;5115338;28;20031;-77
2022/09/27 05:48:57;;;;;;;29.92;23.75;;;;;;;9.19;100.00;97897.66;5115507;28;20023;-77
2022/09/27 05:51:23;;;;;;;26.23;22.25;;;;;;;9.13;100.00;97887.66;5114023;28;20102;-77
2022/09/27 05:53:48;;;;;;;35.53;26.90;;;;;;;9.11;100.00;97885.19;5115425;27;20028;-77
2022/09/27 05:56:13;;;;;;;26.10;23.02;;;;;;;9.11;100.00;97892.97;5115191;28;20026;-77
2022/09/27 05:58:38;;;;;;;26.73;23.55;;;;;;;9.14;100.00;97884.13;5115131;28;20065;-77
2022/09/27 06:01:08;;;;;;;31.92;26.08;;;;;;;9.08;100.00;97882.78;5112135;28;20030;-77
2022/09/27 06:03:34;;;;;;;28.35;23.58;;;;;;;9.13;100.00;97885.91;5118772;27;20031;-77
2022/09/27 06:06:06;;;;;;;28.15;24.17;;;;;;;9.10;100.00;97873.16;5132994;27;20528;-77
2022/09/27 06:08:36;;;;;;;27.70;23.73;;;;;;;9.15;100.00;97880.63;5114544;28;20047;-77
2022/09/27 06:11:04;;;;;;;26.67;21.85;;;;;;;9.17;100.00;97882.16;5111545;27;20035;-77
2022/09/27 06:13:29;;;;;;;26.40;23.55;;;;;;;9.16;100.00;97871.88;5114887;28;20364;-77
2022/09/27 06:15:54;;;;;;;23.92;20.90;;;;;;;9.26;100.00;97878.09;5115024;28;20023;-77
2022/09/27 06:18:20;;;;;;;27.38;21.60;;;;;;;9.27;100.00;97866.78;5114662;28;20150;-77
2022/09/27 06:20:46;;;;;;;26.63;21.52;;;;;;;9.35;100.00;97874.84;5133404;27;20023;-77
2022/09/27 06:23:14;;;;;;;24.55;21.90;;;;;;;9.44;100.00;97874.22;5135338;27;20054;-77
2022/09/27 06:25:39;;;;;;;25.08;21.85;;;;;;;9.39;100.00;97872.88;5135239;27;20022;-77
2022/09/27 06:28:05;;;;;;;27.00;20.65;;;;;;;9.40;100.00;97870.19;5123414;27;20032;-77
2022/09/27 06:30:31;;;;;;;29.52;23.08;;;;;;;9.46;100.00;97874.09;5094423;28;20249;-77
2022/09/27 06:32:59;;;;;;;28.17;23.30;;;;;;;9.48;100.00;97867.88;5094272;28;20024;-77
2022/09/27 06:35:25;;;;;;;26.60;21.30;;;;;;;9.58;100.00;97881.03;5093889;28;20038;-77
2022/09/27 06:37:51;;;;;;;28.77;21.13;;;;;;;9.55;100.00;97867.44;5131287;27;20030;-77
2022/09/27 06:40:17;;;;;;;23.88;21.33;;;;;;;9.57;100.00;97870.75;5134611;27;20027;-77
2022/09/27 06:42:42;;;;;;;23.35;19.90;;;;;;;9.69;100.00;97880.25;5135033;27;20561;-77
2022/09/27 06:45:08;;;;;;;24.83;22.02;;;;;;;9.63;100.00;97865.94;5135076;27;20056;-77
2022/09/27 06:47:37;;;;;;;24.90;20.95;;;;;;;9.70;100.00;97864.56;5134646;27;20019;-77
2022/09/27 06:50:04;;;;;;;21.70;19.40;;;;;;;9.80;100.00;97866.50;5133503;27;20113;-77
2022/09/27 06:52:30;;;;;;;21.33;19.13;;;;;;;9.90;100.00;97864.91;5134519;27;20487;-77
2022/09/27 06:54:56;;;;;;;25.40;20.90;;;;;;;9.92;100.00;97866.47;5134642;27;20015;-77
2022/09/27 07:00:25;;;;;;;21.65;19.08;;;;;;;9.99;100.00;97862.47;5134887;27;20087;-77
2022/09/27 07:02:52;;;;;;;22.08;18.65;;;;;;;10.10;100.00;97872.09;5134612;27;20019;-77
2022/09/27 07:05:17;;;;;;;24.77;21.55;;;;;;;10.06;100.00;97872.41;5134014;27;20046;-77
2022/09/27 07:07:43;;;;;;;29.15;23.42;;;;;;;10.02;100.00;97853.59;5134592;27;20472;-77
2022/09/27 07:10:09;;;;;;;26.80;21.75;;;;;;;10.07;100.00;97853.28;5131249;27;20007;-77
2022/09/27 07:12:36;;;;;;;26.02;22.40;;;;;;;10.00;100.00;97856.31;5113796;28;20057;-77
2022/09/27 07:15:02;;;;;;;49.30;41.38;;;;;;;10.06;100.00;97854.22;5113879;28;20023;-77
2022/09/27 07:17:28;;;;;;;101.63;74.25;;;;;;;10.11;100.00;97862.50;5113378;28;20027;-77
2022/09/27 07:19:54;;;;;;;69.32;62.25;;;;;;;10.00;100.00;97860.72;5113439;28;20136;-77
2022/09/27 07:22:19;;;;;;;46.95;39.60;;;;;;;10.04;100.00;97862.13;5112706;28;20032;-77
2022/09/27 07:24:45;;;;;;;28.02;23.58;;;;;;;10.10;100.00;97873.88;5113555;28;20043;-77
2022/09/27 07:27:10;;;;;;;27.77;23.45;;;;;;;10.19;100.00;97878.38;5113774;28;20028;-77
2022/09/27 07:29:35;;;;;;;32.22;27.73;;;;;;;10.25;100.00;97880.59;5113186;28;20366;-77
2022/09/27 07:32:01;;;;;;;24.80;20.25;;;;;;;10.30;100.00;97875.88;5113400;28;20440;-77
2022/09/27 07:34:27;;;;;;;40.70;36.60;;;;;;;10.32;100.00;97860.97;5113059;28;20015;-77
2022/09/27 07:36:53;;;;;;;45.88;41.67;;;;;;;10.44;100.00;97878.25;5112242;28;20097;-77
2022/09/27 07:39:20;;;;;;;21.30;19.05;;;;;;;10.51;100.00;97880.44;5113105;28;20016;-77
2022/09/27 07:41:46;;;;;;;24.30;21.25;;;;;;;10.59;100.00;97875.47;5113314;28;20028;-77
2022/09/27 07:44:14;;;;;;;29.33;26.30;;;;;;;10.68;100.00;97872.19;5113208;28;20107;-77
2022/09/27 07:46:40;;;;;;;24.25;21.75;;;;;;;10.69;100.00;97859.03;5113132;28;20469;-77
2022/09/27 07:49:05;;;;;;;22.73;19.88;;;;;;;10.66;100.00;97866.25;5113047;28;20103;-77
2022/09/27 07:51:31;;;;;;;22.52;19.02;;;;;;;10.64;100.00;97874.19;5113001;28;20062;-77
2022/09/27 07:53:56;;;;;;;21.08;18.80;;;;;;;10.74;100.00;97871.72;5113165;28;20019;-77
2022/09/27 07:56:21;;;;;;;22.90;19.77;;;;;;;10.85;100.00;97878.72;5109350;28;20103;-77
2022/09/27 07:58:47;;;;;;;26.33;19.50;;;;;;;10.83;100.00;97865.81;5109627;28;20031;-77
2022/09/27 08:01:13;;;;;;;23.92;19.52;;;;;;;10.94;100.00;97875.41;5112670;28;20046;-77
2022/09/27 08:03:39;;;;;;;20.98;18.70;;;;;;;10.86;100.00;97869.94;5112410;28;20023;-77
2022/09/27 08:06:05;;;;;;;23.90;21.40;;;;;;;10.92;100.00;97865.13;5112826;28;20509;-77
2022/09/27 08:08:30;;;;;;;31.23;24.08;;;;;;;10.86;100.00;97862.13;5112440;28;20123;-78
2022/09/27 08:10:57;;;;;;;26.98;24.00;;;;;;;10.74;100.00;97864.75;5106371;28;20397;-77
2022/09/27 08:13:22;;;;;;;32.28;24.80;;;;;;;10.80;100.00;97870.44;5094445;28;20020;-77
2022/09/27 08:15:51;;;;;;;27.70;20.60;;;;;;;10.79;100.00;97869.59;5110248;28;20020;-77
2022/09/27 08:18:16;;;;;;;26.88;22.80;;;;;;;10.77;100.00;97858.47;5105848;28;20031;-77
2022/09/27 08:20:42;;;;;;;34.83;30.85;;;;;;;10.86;100.00;97859.53;5112499;28;20019;-78
2022/09/27 08:23:07;;;;;;;22.08;19.67;;;;;;;10.87;100.00;97861.19;5112898;28;20050;-77
2022/09/27 08:25:33;;;;;;;20.85;18.65;;;;;;;10.91;100.00;97862.63;5109042;28;20047;-77
2022/09/27 08:28:00;;;;;;;21.20;18.02;;;;;;;10.90;100.00;97866.16;5102158;28;20468;-77
2022/09/27 08:30:28;;;;;;;20.75;18.55;;;;;;;10.83;100.00;97857.16;5100421;28;20457;-77
2022/09/27 08:32:58;;;;;;;23.13;20.20;;;;;;;10.81;100.00;97859.06;5101450;28;20068;-77
2022/09/27 08:35:24;;;;;;;23.15;19.52;;;;;;;10.82;100.00;97858.09;5100187;28;20015;-78
2022/09/27 08:37:58;;;;;;;25.45;21.85;;;;;;;10.83;100.00;97857.16;5109065;28;20031;-78
2022/09/27 08:40:38;;;;;;;25.30;18.67;;;;;;;10.86;100.00;97854.31;5112088;28;20043;-78
2022/09/27 08:43:16;;;;;;;21.00;18.75;;;;;;;10.98;100.00;97862.03;5111341;28;20103;-77
2022/09/27 08:46:04;;;;;;;25.08;19.35;;;;;;;11.02;100.00;97865.22;5093841;28;20016;-77
2022/09/27 08:48:31;;;;;;;20.02;17.35;;;;;;;11.06;100.00;97871.03;5106167;28;20585;-77
2022/09/27 08:50:57;;;;;;;18.92;17.02;;;;;;;11.22;100.00;97866.31;5124510;28;20049;-76
2022/09/27 08:53:30;;;;;;;31.48;25.20;;;;;;;11.18;100.00;97880.53;5120587;28;20023;-78
2022/09/27 08:55:57;;;;;;;41.58;33.67;;;;;;;11.10;100.00;97867.25;5112085;28;20034;-78
2022/09/27 08:58:31;;;;;;;28.10;23.15;;;;;;;11.11;100.00;97872.34;5111984;28;20069;-78
2022/09/27 09:01:02;;;;;;;25.75;21.02;;;;;;;11.07;100.00;97870.09;5112495;28;20023;-77
2022/09/27 09:03:29;;;;;;;23.83;20.67;;;;;;;11.04;100.00;97875.53;5097105;28;20028;-77
2022/09/27 09:05:57;;;;;;;30.40;24.30;;;;;;;11.00;100.00;97864.53;5091487;28;20043;-77
2022/09/27 09:08:43;;;;;;;26.65;22.83;;;;;;;10.97;100.00;97859.56;5091434;28;20127;-77
2022/09/27 09:14:38;;;;;;;25.52;22.75;;;;;;;10.95;100.00;97854.44;5132782;28;20046;-77
2022/09/27 09:17:33;;;;;;;30.90;27.65;;;;;;;11.00;100.00;97854.13;5132763;27;20019;-77
2022/09/27 09:20:08;;;;;;;24.80;21.05;;;;;;;11.06;100.00;97861.44;5122340;28;20039;-78
2022/09/27 09:22:56;;;;;;;20.15;18.05;;;;;;;11.00;100.00;97843.69;5111648;28;20023;-77
2022/09/27 09:25:32;;;;;;;21.52;17.95;;;;;;;11.16;100.00;97857.16;5111898;28;20084;-79
2022/09/27 09:28:36;;;;;;;27.92;24.08;;;;;;;11.10;100.00;97849.03;5112161;28;20360;-79
2022/09/27 09:31:10;;;;;;;25.38;21.00;;;;;;;11.16;100.00;97856.34;5111726;28;20020;-79
2022/09/27 09:33:43;;;;;;;31.83;23.70;;;;;;;11.16;100.00;97851.13;5112000;28;20057;-78
2022/09/27 09:36:31;;;;;;;21.48;18.30;;;;;;;11.19;100.00;97856.13;5111732;28;20019;-79
2022/09/27 09:39:04;;;;;;;58.53;39.88;;;;;;;11.27;100.00;97843.31;5111831;28;20337;-79
2022/09/27 09:41:47;;;;;;;69.78;46.05;;;;;;;11.36;100.00;97844.38;5111515;28;20027;-79
2022/09/27 09:44:40;;;;;;;29.33;24.00;;;;;;;11.38;100.00;97840.72;5106750;28;20039;-78
2022/09/27 09:47:16;;;;;;;34.25;25.08;;;;;;;11.43;100.00;97835.97;5072217;28;20036;-78
2022/09/27 09:49:46;;;;;;;24.63;19.35;;;;;;;11.35;100.00;97832.31;5071897;28;20059;-78
2022/09/27 09:52:17;;;;;;;45.28;33.47;;;;;;;11.33;100.00;97823.75;5072498;28;20503;-78
2022/09/27 09:54:50;;;;;;;31.98;24.38;;;;;;;11.42;100.00;97829.09;5056941;28;20060;-78
2022/09/27 09:57:24;;;;;;;28.13;21.23;;;;;;;11.48;100.00;97825.16;5052145;28;20149;-78
2022/09/27 10:00:04;;;;;;;30.85;27.55;;;;;;;11.51;100.00;97830.16;5052151;28;20021;-77
2022/09/27 10:02:50;;;;;;;25.95;21.58;;;;;;;11.44;100.00;97823.75;5051789;28;20458;-77
2022/09/27 10:05:19;;;;;;;22.17;18.58;;;;;;;11.49;100.00;97824.22;5051978;28;20118;-79
2022/09/27 10:07:45;;;;;;;23.60;21.20;;;;;;;11.47;100.00;97819.13;5051625;28;20079;-78
2022/09/27 10:10:15;;;;;;;27.02;24.13;;;;;;;11.55;100.00;97820.31;5058675;28;20028;-78
2022/09/27 10:12:42;;;;;;;22.90;20.50;;;;;;;11.55;100.00;97821.13;5077907;28;20052;-78
2022/09/27 10:15:19;;;;;;;25.50;19.10;;;;;;;11.61;100.00;97822.41;5071869;28;20029;-78
2022/09/27 10:17:49;;;;;;;22.58;19.83;;;;;;;11.69;100.00;97817.41;5071393;28;20037;-76
2022/09/27 10:20:27;;;;;;;21.58;18.60;;;;;;;11.69;100.00;97815.63;5076919;28;20020;-76
2022/09/27 10:22:55;;;;;;;20.35;17.17;;;;;;;11.73;100.00;97822.25;5092165;28;20708;-77
2022/09/27 10:25:21;;;;;;;23.23;17.95;;;;;;;11.68;100.00;97818.38;5126906;27;20051;-77
2022/09/27 10:27:49;;;;;;;23.42;18.65;;;;;;;11.68;100.00;97811.38;5114147;28;20051;-77
2022/09/27 10:30:28;;;;;;;18.52;16.52;;;;;;;11.73;100.00;97809.22;5115008;28;20065;-77
2022/09/27 10:32:59;;;;;;;21.98;19.58;;;;;;;11.79;100.00;97799.22;5114796;28;20356;-78
2022/09/27 10:35:42;;;;;;;21.70;17.80;;;;;;;11.92;100.00;97812.97;5108316;28;20098;-78
2022/09/27 10:38:24;;;;;;;20.52;18.38;;;;;;;11.89;100.00;97800.19;5096880;28;20024;-78
2022/09/27 10:40:52;;;;;;;20.30;17.70;;;;;;;11.99;100.00;97799.28;5093988;28;20016;-78
2022/09/27 10:43:35;;;;;;;22.85;19.70;;;;;;;12.09;100.00;97809.78;5094053;28;20411;-78
2022/09/27 10:46:06;;;;;;;20.23;18.02;;;;;;;12.12;100.00;97808.72;5103368;28;20039;-78
2022/09/27 10:48:31;;;;;;;20.52;18.33;;;;;;;12.16;100.00;97805.75;5111080;28;20027;-78
2022/09/27 10:51:18;;;;;;;19.48;17.45;;;;;;;12.27;100.00;97798.81;5102009;28;20477;-78
2022/09/27 10:53:45;;;;;;;17.85;15.82;;;;;;;12.33;100.00;97793.91;5105337;28;20487;-78
2022/09/27 10:56:22;;;;;;;21.27;18.38;;;;;;;12.29;100.00;97789.06;5092663;28;20036;-78
2022/09/27 10:58:48;;;;;;;18.75;16.73;;;;;;;12.22;100.00;97791.38;5093657;28;20024;-78
2022/09/27 11:01:13;;;;;;;20.00;16.45;;;;;;;12.26;100.00;97795.34;5103040;28;20016;-78
2022/09/27 11:03:52;;;;;;;22.55;18.40;;;;;;;12.33;100.00;97799.13;5097939;27;20111;-78
2022/09/27 11:06:23;;;;;;;19.42;15.43;;;;;;;12.24;100.00;97800.72;5094011;28;20031;-78
2022/09/27 11:08:53;;;;;;;20.33;15.55;;;;;;;12.20;100.00;97801.09;5093340;28;20051;-78
2022/09/27 11:11:20;;;;;;;20.92;15.27;;;;;;;12.19;100.00;97796.84;5120288;27;20011;-78
2022/09/27 11:14:19;;;;;;;18.00;16.20;;;;;;;12.10;100.00;97793.22;5112744;27;20016;-78
2022/09/27 11:17:22;;;;;;;19.15;16.13;;;;;;;12.02;100.00;97790.41;5055005;28;20032;-77
2022/09/27 11:19:59;;;;;;;19.55;15.55;;;;;;;12.08;100.00;97791.66;5050452;28;20064;-77
2022/09/27 11:22:55;;;;;;;18.95;15.32;;;;;;;12.11;100.00;97797.47;5050546;28;20025;-77
2022/09/27 11:25:45;;;;;;;17.42;15.52;;;;;;;12.07;100.00;97790.03;5050537;28;20033;-78
2022/09/27 11:28:16;;;;;;;20.58;17.90;;;;;;;12.17;100.00;97785.69;5050572;28;20095;-78
2022/09/27 11:31:19;;;;;;;20.42;17.88;;;;;;;12.13;100.00;97786.88;5050344;28;20494;-78
2022/09/27 11:33:47;;;;;;;21.90;18.77;;;;;;;12.15;100.00;97778.00;5050164;28;20044;-78
2022/09/27 11:37:00;;;;;;;25.00;18.70;;;;;;;12.13;100.00;97772.06;5050319;28;20029;-78
2022/09/27 11:40:22;;;;;;;20.35;18.10;;;;;;;12.24;100.00;97766.78;4996386;28;20026;-77